sensor_id;sensor_type;location;lat;lon;timestamp;temperature;humidity
55121;DHT22;41019;48.512;9.036;2022-11-24T00:00:34;8.30;96.40
55121;DHT22;41019;48.512;9.036;2022-11-24T00:03:00;8.30;96.40
55121;DHT22;41019;48.512;9.036;2022-11-24T00:05:26;8.30;96.30
55121;DHT22;41019;48.512;9.036;2022-11-24T00:07:52;8.30;96.20
55121;DHT22;41019;48.512;9.036;2022-11-24T00:10:18;8.40;96.20
55121;DHT22;41019;48.512;9.036;2022-11-24T00:12:45;8.40;96.00
55121;DHT22;41019;48.512;9.036;2022-11-24T00:15:10;8.40;95.90
55121;DHT22;41019;48.512;9.036;2022-11-24T00:17:36;8.40;95.80
55121;DHT22;41019;48.512;9.036;2022-11-24T00:20:02;8.40;95.60
55121;DHT22;41019;48.512;9.036;2022-11-24T00:22:28;8.50;95.60
55121;DHT22;41019;48.512;9.036;2022-11-24T00:24:55;8.50;95.40
55121;DHT22;41019;48.512;9.036;2022-11-24T00:27:21;8.50;95.00
55121;DHT22;41019;48.512;9.036;2022-11-24T00:29:47;8.50;94.80
55121;DHT22;41019;48.512;9.036;2022-11-24T00:32:13;8.40;94.80
55121;DHT22;41019;48.512;9.036;2022-11-24T00:34:39;8.40;94.70
55121;DHT22;41019;48.512;9.036;2022-11-24T00:37:06;8.40;94.70
55121;DHT22;41019;48.512;9.036;2022-11-24T00:39:32;8.30;94.90
55121;DHT22;41019;48.512;9.036;2022-11-24T00:41:58;8.30;94.80
55121;DHT22;41019;48.512;9.036;2022-11-24T00:44:24;8.30;94.70
55121;DHT22;41019;48.512;9.036;2022-11-24T00:46:50;8.30;94.80
55121;DHT22;41019;48.512;9.036;2022-11-24T00:49:16;8.30;94.80
55121;DHT22;41019;48.512;9.036;2022-11-24T00:51:42;8.30;94.90
55121;DHT22;41019;48.512;9.036;2022-11-24T00:54:07;8.20;94.80
55121;DHT22;41019;48.512;9.036;2022-11-24T00:56:34;8.20;95.10
55121;DHT22;41019;48.512;9.036;2022-11-24T00:58:59;8.10;95.10
55121;DHT22;41019;48.512;9.036;2022-11-24T01:01:27;8.10;95.50
55121;DHT22;41019;48.512;9.036;2022-11-24T01:03:54;8.00;95.50
55121;DHT22;41019;48.512;9.036;2022-11-24T01:06:24;8.10;95.80
55121;DHT22;41019;48.512;9.036;2022-11-24T01:08:51;8.10;95.90
55121;DHT22;41019;48.512;9.036;2022-11-24T01:11:21;8.10;95.90
55121;DHT22;41019;48.512;9.036;2022-11-24T01:13:52;8.10;95.90
55121;DHT22;41019;48.512;9.036;2022-11-24T01:16:30;8.10;95.90
55121;DHT22;41019;48.512;9.036;2022-11-24T01:18:57;8.10;96.00
55121;DHT22;41019;48.512;9.036;2022-11-24T01:21:23;8.10;95.90
55121;DHT22;41019;48.512;9.036;2022-11-24T01:23:50;8.10;95.70
55121;DHT22;41019;48.512;9.036;2022-11-24T01:26:19;8.10;95.80
55121;DHT22;41019;48.512;9.036;2022-11-24T01:28:45;8.10;95.80
55121;DHT22;41019;48.512;9.036;2022-11-24T01:31:11;8.10;95.70
55121;DHT22;41019;48.512;9.036;2022-11-24T01:33:37;8.10;95.70
55121;DHT22;41019;48.512;9.036;2022-11-24T01:36:04;8.20;95.60
55121;DHT22;41019;48.512;9.036;2022-11-24T01:38:31;8.10;95.50
55121;DHT22;41019;48.512;9.036;2022-11-24T01:41:06;8.20;95.50
55121;DHT22;41019;48.512;9.036;2022-11-24T01:43:33;8.20;95.40
55121;DHT22;41019;48.512;9.036;2022-11-24T01:49:10;8.10;95.40
55121;DHT22;41019;48.512;9.036;2022-11-24T01:51:47;8.10;95.40
55121;DHT22;41019;48.512;9.036;2022-11-24T01:54:40;8.10;95.40
55121;DHT22;41019;48.512;9.036;2022-11-24T01:57:28;7.90;95.30
55121;DHT22;41019;48.512;9.036;2022-11-24T02:00:01;7.80;95.70
55121;DHT22;41019;48.512;9.036;2022-11-24T02:02:41;7.80;95.70
55121;DHT22;41019;48.512;9.036;2022-11-24T02:05:20;7.70;95.90
55121;DHT22;41019;48.512;9.036;2022-11-24T02:07:48;7.60;96.00
55121;DHT22;41019;48.512;9.036;2022-11-24T02:10:15;7.50;96.00
55121;DHT22;41019;48.512;9.036;2022-11-24T02:12:45;7.40;96.20
55121;DHT22;41019;48.512;9.036;2022-11-24T02:15:14;7.40;96.50
55121;DHT22;41019;48.512;9.036;2022-11-24T02:17:41;7.40;96.20
55121;DHT22;41019;48.512;9.036;2022-11-24T02:20:08;7.40;96.50
55121;DHT22;41019;48.512;9.036;2022-11-24T02:28:20;7.10;96.50
55121;DHT22;41019;48.512;9.036;2022-11-24T02:30:46;7.00;96.80
55121;DHT22;41019;48.512;9.036;2022-11-24T02:33:12;6.90;97.20
55121;DHT22;41019;48.512;9.036;2022-11-24T02:35:39;6.90;97.20
55121;DHT22;41019;48.512;9.036;2022-11-24T02:38:05;6.80;97.40
55121;DHT22;41019;48.512;9.036;2022-11-24T02:40:31;6.70;97.40
55121;DHT22;41019;48.512;9.036;2022-11-24T02:43:04;6.60;97.50
55121;DHT22;41019;48.512;9.036;2022-11-24T02:45:32;6.60;97.40
55121;DHT22;41019;48.512;9.036;2022-11-24T02:47:58;6.50;97.40
55121;DHT22;41019;48.512;9.036;2022-11-24T02:50:24;6.40;97.70
55121;DHT22;41019;48.512;9.036;2022-11-24T02:52:50;6.30;97.80
55121;DHT22;41019;48.512;9.036;2022-11-24T02:55:16;6.30;97.50
55121;DHT22;41019;48.512;9.036;2022-11-24T02:57:42;6.10;97.70
55121;DHT22;41019;48.512;9.036;2022-11-24T03:00:08;6.10;98.00
55121;DHT22;41019;48.512;9.036;2022-11-24T03:02:34;6.10;98.30
55121;DHT22;41019;48.512;9.036;2022-11-24T03:05:00;6.00;98.30
55121;DHT22;41019;48.512;9.036;2022-11-24T03:07:27;6.00;98.30
55121;DHT22;41019;48.512;9.036;2022-11-24T03:09:53;6.00;98.80
55121;DHT22;41019;48.512;9.036;2022-11-24T03:12:18;5.90;98.60
55121;DHT22;41019;48.512;9.036;2022-11-24T03:14:44;5.90;99.00
55121;DHT22;41019;48.512;9.036;2022-11-24T03:17:10;5.90;98.60
55121;DHT22;41019;48.512;9.036;2022-11-24T03:19:36;5.80;98.60
55121;DHT22;41019;48.512;9.036;2022-11-24T03:22:02;5.80;98.50
55121;DHT22;41019;48.512;9.036;2022-11-24T03:24:28;5.70;98.40
55121;DHT22;41019;48.512;9.036;2022-11-24T03:26:54;5.70;98.30
55121;DHT22;41019;48.512;9.036;2022-11-24T03:29:21;5.50;98.50
55121;DHT22;41019;48.512;9.036;2022-11-24T03:31:47;5.50;98.70
55121;DHT22;41019;48.512;9.036;2022-11-24T03:34:12;5.50;98.50
55121;DHT22;41019;48.512;9.036;2022-11-24T03:36:38;5.40;98.40
55121;DHT22;41019;48.512;9.036;2022-11-24T03:39:04;5.40;98.10
55121;DHT22;41019;48.512;9.036;2022-11-24T03:41:30;5.30;98.50
55121;DHT22;41019;48.512;9.036;2022-11-24T03:43:56;5.30;98.40
55121;DHT22;41019;48.512;9.036;2022-11-24T03:46:22;5.20;98.60
55121;DHT22;41019;48.512;9.036;2022-11-24T03:48:47;5.20;98.90
55121;DHT22;41019;48.512;9.036;2022-11-24T03:51:13;5.20;98.90
55121;DHT22;41019;48.512;9.036;2022-11-24T03:53:40;5.20;99.10
55121;DHT22;41019;48.512;9.036;2022-11-24T03:56:06;5.10;98.90
55121;DHT22;41019;48.512;9.036;2022-11-24T03:58:32;5.10;98.80
55121;DHT22;41019;48.512;9.036;2022-11-24T04:00:58;5.00;98.70
55121;DHT22;41019;48.512;9.036;2022-11-24T04:03:25;5.00;98.90
55121;DHT22;41019;48.512;9.036;2022-11-24T04:05:51;5.00;98.80
55121;DHT22;41019;48.512;9.036;2022-11-24T04:08:17;5.00;98.50
55121;DHT22;41019;48.512;9.036;2022-11-24T04:10:44;4.90;98.70
55121;DHT22;41019;48.512;9.036;2022-11-24T04:13:15;4.90;98.70
55121;DHT22;41019;48.512;9.036;2022-11-24T04:15:42;4.80;98.30
55121;DHT22;41019;48.512;9.036;2022-11-24T04:18:11;4.70;97.90
55121;DHT22;41019;48.512;9.036;2022-11-24T04:20:37;4.70;98.00
55121;DHT22;41019;48.512;9.036;2022-11-24T04:23:03;4.70;98.60
55121;DHT22;41019;48.512;9.036;2022-11-24T04:25:29;4.70;98.90
55121;DHT22;41019;48.512;9.036;2022-11-24T04:27:55;4.70;99.00
55121;DHT22;41019;48.512;9.036;2022-11-24T04:30:23;4.70;99.00
55121;DHT22;41019;48.512;9.036;2022-11-24T04:32:50;4.70;99.30
55121;DHT22;41019;48.512;9.036;2022-11-24T04:35:16;4.60;99.10
55121;DHT22;41019;48.512;9.036;2022-11-24T04:37:42;4.60;99.10
55121;DHT22;41019;48.512;9.036;2022-11-24T04:40:10;4.60;99.10
55121;DHT22;41019;48.512;9.036;2022-11-24T04:42:36;4.60;99.30
55121;DHT22;41019;48.512;9.036;2022-11-24T04:45:03;4.60;99.40
55121;DHT22;41019;48.512;9.036;2022-11-24T04:47:30;4.70;99.70
55121;DHT22;41019;48.512;9.036;2022-11-24T04:49:56;4.70;99.60
55121;DHT22;41019;48.512;9.036;2022-11-24T04:52:23;4.70;99.70
55121;DHT22;41019;48.512;9.036;2022-11-24T04:54:50;4.70;99.60
55121;DHT22;41019;48.512;9.036;2022-11-24T04:57:18;4.60;99.60
55121;DHT22;41019;48.512;9.036;2022-11-24T04:59:45;4.70;99.50
55121;DHT22;41019;48.512;9.036;2022-11-24T05:02:12;4.70;99.90
55121;DHT22;41019;48.512;9.036;2022-11-24T05:04:38;4.70;99.90
55121;DHT22;41019;48.512;9.036;2022-11-24T05:07:04;4.60;99.90
55121;DHT22;41019;48.512;9.036;2022-11-24T05:09:30;4.80;99.90
55121;DHT22;41019;48.512;9.036;2022-11-24T05:11:56;4.80;99.90
55121;DHT22;41019;48.512;9.036;2022-11-24T05:14:21;4.70;99.60
55121;DHT22;41019;48.512;9.036;2022-11-24T05:16:47;4.70;99.40
55121;DHT22;41019;48.512;9.036;2022-11-24T05:19:13;4.60;99.60
55121;DHT22;41019;48.512;9.036;2022-11-24T05:21:39;4.60;99.70
55121;DHT22;41019;48.512;9.036;2022-11-24T05:24:05;4.60;99.70
55121;DHT22;41019;48.512;9.036;2022-11-24T05:26:31;4.60;99.70
55121;DHT22;41019;48.512;9.036;2022-11-24T05:28:57;4.60;99.70
55121;DHT22;41019;48.512;9.036;2022-11-24T05:31:23;4.60;99.80
55121;DHT22;41019;48.512;9.036;2022-11-24T05:33:49;4.60;99.80
55121;DHT22;41019;48.512;9.036;2022-11-24T05:36:15;4.60;99.70
55121;DHT22;41019;48.512;9.036;2022-11-24T05:39:21;4.60;99.70
55121;DHT22;41019;48.512;9.036;2022-11-24T05:41:47;4.50;99.20
55121;DHT22;41019;48.512;9.036;2022-11-24T05:44:13;4.50;99.20
55121;DHT22;41019;48.512;9.036;2022-11-24T05:46:39;4.50;99.10
55121;DHT22;41019;48.512;9.036;2022-11-24T05:49:04;4.50;99.00
55121;DHT22;41019;48.512;9.036;2022-11-24T05:51:30;4.40;98.90
55121;DHT22;41019;48.512;9.036;2022-11-24T05:53:58;4.40;98.90
55121;DHT22;41019;48.512;9.036;2022-11-24T05:56:23;4.30;98.90
55121;DHT22;41019;48.512;9.036;2022-11-24T05:58:49;4.40;99.10
55121;DHT22;41019;48.512;9.036;2022-11-24T06:01:15;4.30;98.90
55121;DHT22;41019;48.512;9.036;2022-11-24T06:03:41;4.30;99.00
55121;DHT22;41019;48.512;9.036;2022-11-24T06:06:06;4.30;98.80
55121;DHT22;41019;48.512;9.036;2022-11-24T06:08:32;4.30;98.90
55121;DHT22;41019;48.512;9.036;2022-11-24T06:11:00;4.30;99.20
55121;DHT22;41019;48.512;9.036;2022-11-24T06:13:46;4.30;99.30
55121;DHT22;41019;48.512;9.036;2022-11-24T06:16:13;4.40;99.40
55121;DHT22;41019;48.512;9.036;2022-11-24T06:18:39;4.40;99.60
55121;DHT22;41019;48.512;9.036;2022-11-24T06:21:06;4.40;99.40
55121;DHT22;41019;48.512;9.036;2022-11-24T06:23:32;4.40;99.50
55121;DHT22;41019;48.512;9.036;2022-11-24T06:25:59;4.40;99.60
55121;DHT22;41019;48.512;9.036;2022-11-24T06:28:25;4.50;99.80
55121;DHT22;41019;48.512;9.036;2022-11-24T06:30:52;4.50;99.70
55121;DHT22;41019;48.512;9.036;2022-11-24T06:33:18;4.50;99.80
55121;DHT22;41019;48.512;9.036;2022-11-24T06:35:45;4.50;99.60
55121;DHT22;41019;48.512;9.036;2022-11-24T06:38:11;4.50;99.70
55121;DHT22;41019;48.512;9.036;2022-11-24T06:40:36;4.50;99.80
55121;DHT22;41019;48.512;9.036;2022-11-24T06:43:02;4.50;99.90
55121;DHT22;41019;48.512;9.036;2022-11-24T06:45:28;4.60;99.90
55121;DHT22;41019;48.512;9.036;2022-11-24T06:47:54;4.60;99.90
55121;DHT22;41019;48.512;9.036;2022-11-24T06:50:21;4.60;99.90
55121;DHT22;41019;48.512;9.036;2022-11-24T06:52:47;4.70;99.90
55121;DHT22;41019;48.512;9.036;2022-11-24T06:55:14;4.70;99.90
55121;DHT22;41019;48.512;9.036;2022-11-24T06:57:41;4.70;99.90
55121;DHT22;41019;48.512;9.036;2022-11-24T07:00:07;4.80;99.90
55121;DHT22;41019;48.512;9.036;2022-11-24T07:02:33;4.80;99.90
55121;DHT22;41019;48.512;9.036;2022-11-24T07:04:59;4.90;99.90
55121;DHT22;41019;48.512;9.036;2022-11-24T07:07:25;4.90;99.90
55121;DHT22;41019;48.512;9.036;2022-11-24T07:09:51;4.90;99.90
55121;DHT22;41019;48.512;9.036;2022-11-24T07:12:16;5.00;99.90
55121;DHT22;41019;48.512;9.036;2022-11-24T07:14:42;5.00;99.90
55121;DHT22;41019;48.512;9.036;2022-11-24T07:17:08;5.10;99.90
55121;DHT22;41019;48.512;9.036;2022-11-24T07:19:34;5.10;99.90
55121;DHT22;41019;48.512;9.036;2022-11-24T07:22:00;5.10;99.90
55121;DHT22;41019;48.512;9.036;2022-11-24T07:24:26;5.20;99.90
55121;DHT22;41019;48.512;9.036;2022-11-24T07:26:51;5.10;99.90
55121;DHT22;41019;48.512;9.036;2022-11-24T07:29:17;5.20;99.90
55121;DHT22;41019;48.512;9.036;2022-11-24T07:31:43;5.20;99.90
55121;DHT22;41019;48.512;9.036;2022-11-24T07:34:10;5.20;99.90
55121;DHT22;41019;48.512;9.036;2022-11-24T07:36:36;5.20;99.90
55121;DHT22;41019;48.512;9.036;2022-11-24T07:39:05;5.20;99.90
55121;DHT22;41019;48.512;9.036;2022-11-24T07:41:31;5.30;99.90
55121;DHT22;41019;48.512;9.036;2022-11-24T07:43:57;5.30;99.90
55121;DHT22;41019;48.512;9.036;2022-11-24T07:46:23;5.30;99.90
55121;DHT22;41019;48.512;9.036;2022-11-24T07:48:49;5.40;99.90
55121;DHT22;41019;48.512;9.036;2022-11-24T07:51:15;5.50;99.90
55121;DHT22;41019;48.512;9.036;2022-11-24T07:53:44;5.60;99.90
55121;DHT22;41019;48.512;9.036;2022-11-24T07:56:10;5.80;99.90
55121;DHT22;41019;48.512;9.036;2022-11-24T07:58:38;6.00;99.90
55121;DHT22;41019;48.512;9.036;2022-11-24T08:01:15;6.10;99.90
55121;DHT22;41019;48.512;9.036;2022-11-24T08:03:42;6.30;99.90
55121;DHT22;41019;48.512;9.036;2022-11-24T08:06:28;6.50;99.90
55121;DHT22;41019;48.512;9.036;2022-11-24T08:09:04;6.70;99.90
55121;DHT22;41019;48.512;9.036;2022-11-24T08:11:36;6.80;99.90
55121;DHT22;41019;48.512;9.036;2022-11-24T08:14:07;7.00;99.90
55121;DHT22;41019;48.512;9.036;2022-11-24T08:16:36;7.10;99.90
55121;DHT22;41019;48.512;9.036;2022-11-24T08:19:07;7.20;99.90
55121;DHT22;41019;48.512;9.036;2022-11-24T08:21:51;7.20;99.90
55121;DHT22;41019;48.512;9.036;2022-11-24T08:24:17;7.30;99.90
55121;DHT22;41019;48.512;9.036;2022-11-24T08:26:46;7.30;99.90
55121;DHT22;41019;48.512;9.036;2022-11-24T08:29:18;7.30;99.90
55121;DHT22;41019;48.512;9.036;2022-11-24T08:31:54;7.40;99.90
55121;DHT22;41019;48.512;9.036;2022-11-24T08:34:27;7.40;99.90
55121;DHT22;41019;48.512;9.036;2022-11-24T08:36:53;7.40;99.90
55121;DHT22;41019;48.512;9.036;2022-11-24T08:39:22;7.40;99.90
55121;DHT22;41019;48.512;9.036;2022-11-24T08:42:00;7.50;99.90
55121;DHT22;41019;48.512;9.036;2022-11-24T08:44:28;7.50;99.90
55121;DHT22;41019;48.512;9.036;2022-11-24T08:46:54;7.50;99.90
55121;DHT22;41019;48.512;9.036;2022-11-24T08:49:21;7.60;99.90
55121;DHT22;41019;48.512;9.036;2022-11-24T08:51:52;7.60;99.90
55121;DHT22;41019;48.512;9.036;2022-11-24T08:54:26;7.70;99.90
55121;DHT22;41019;48.512;9.036;2022-11-24T08:57:01;7.70;99.90
55121;DHT22;41019;48.512;9.036;2022-11-24T08:59:40;7.80;99.90
55121;DHT22;41019;48.512;9.036;2022-11-24T09:02:17;7.90;99.90
55121;DHT22;41019;48.512;9.036;2022-11-24T09:04:48;7.90;99.90
55121;DHT22;41019;48.512;9.036;2022-11-24T09:07:20;7.90;99.90
55121;DHT22;41019;48.512;9.036;2022-11-24T09:09:49;8.00;99.90
55121;DHT22;41019;48.512;9.036;2022-11-24T09:12:30;7.90;99.90
55121;DHT22;41019;48.512;9.036;2022-11-24T09:15:18;7.90;99.90
55121;DHT22;41019;48.512;9.036;2022-11-24T09:17:45;7.90;99.90
55121;DHT22;41019;48.512;9.036;2022-11-24T09:20:15;7.90;99.90
55121;DHT22;41019;48.512;9.036;2022-11-24T09:22:48;8.00;99.90
55121;DHT22;41019;48.512;9.036;2022-11-24T09:25:20;8.10;99.90
55121;DHT22;41019;48.512;9.036;2022-11-24T09:27:52;8.20;99.90
55121;DHT22;41019;48.512;9.036;2022-11-24T09:30:25;8.40;99.90
55121;DHT22;41019;48.512;9.036;2022-11-24T09:33:05;8.50;99.90
55121;DHT22;41019;48.512;9.036;2022-11-24T09:35:36;8.60;99.90
55121;DHT22;41019;48.512;9.036;2022-11-24T09:38:21;8.70;99.90
55121;DHT22;41019;48.512;9.036;2022-11-24T09:44:26;9.10;99.90
55121;DHT22;41019;48.512;9.036;2022-11-24T09:49:50;9.50;99.20
55121;DHT22;41019;48.512;9.036;2022-11-24T09:52:48;9.60;98.60
55121;DHT22;41019;48.512;9.036;2022-11-24T09:55:33;9.70;98.60
55121;DHT22;41019;48.512;9.036;2022-11-24T10:00:57;10.10;97.70
55121;DHT22;41019;48.512;9.036;2022-11-24T10:03:38;10.40;97.20
55121;DHT22;41019;48.512;9.036;2022-11-24T10:06:34;10.60;96.10
55121;DHT22;41019;48.512;9.036;2022-11-24T10:21:43;11.00;92.00
55121;DHT22;41019;48.512;9.036;2022-11-24T10:24:44;11.00;92.40
55121;DHT22;41019;48.512;9.036;2022-11-24T10:27:21;11.00;92.40
55121;DHT22;41019;48.512;9.036;2022-11-24T10:29:56;11.00;92.00
55121;DHT22;41019;48.512;9.036;2022-11-24T10:32:58;10.90;91.30
55121;DHT22;41019;48.512;9.036;2022-11-24T10:35:46;10.80;91.40
55121;DHT22;41019;48.512;9.036;2022-11-24T10:38:43;10.70;92.30
55121;DHT22;41019;48.512;9.036;2022-11-24T10:44:34;10.60;92.40
55121;DHT22;41019;48.512;9.036;2022-11-24T10:47:22;10.70;92.60
55121;DHT22;41019;48.512;9.036;2022-11-24T10:52:45;10.80;93.00
55121;DHT22;41019;48.512;9.036;2022-11-24T10:55:18;10.80;91.90
55121;DHT22;41019;48.512;9.036;2022-11-24T11:00:51;10.80;92.40
55121;DHT22;41019;48.512;9.036;2022-11-24T11:03:31;10.90;92.10
55121;DHT22;41019;48.512;9.036;2022-11-24T11:06:21;10.90;92.00
55121;DHT22;41019;48.512;9.036;2022-11-24T11:09:15;10.90;92.40
55121;DHT22;41019;48.512;9.036;2022-11-24T11:11:52;11.00;92.00
55121;DHT22;41019;48.512;9.036;2022-11-24T11:14:34;11.00;91.90
55121;DHT22;41019;48.512;9.036;2022-11-24T11:17:31;11.00;91.80
55121;DHT22;41019;48.512;9.036;2022-11-24T11:20:39;11.10;91.70
55121;DHT22;41019;48.512;9.036;2022-11-24T11:26:22;11.30;91.80
55121;DHT22;41019;48.512;9.036;2022-11-24T11:31:37;11.40;90.90
55121;DHT22;41019;48.512;9.036;2022-11-24T11:36:44;11.40;91.40
55121;DHT22;41019;48.512;9.036;2022-11-24T11:39:26;11.50;91.30
55121;DHT22;41019;48.512;9.036;2022-11-24T11:44:56;11.60;89.60
55121;DHT22;41019;48.512;9.036;2022-11-24T11:50:15;11.60;88.30
55121;DHT22;41019;48.512;9.036;2022-11-24T11:53:04;11.70;89.00
55121;DHT22;41019;48.512;9.036;2022-11-24T11:56:00;11.70;87.00
55121;DHT22;41019;48.512;9.036;2022-11-24T12:04:20;11.90;84.20
55121;DHT22;41019;48.512;9.036;2022-11-24T12:13:07;12.00;81.50
55121;DHT22;41019;48.512;9.036;2022-11-24T12:15:54;12.00;80.20
55121;DHT22;41019;48.512;9.036;2022-11-24T12:21:32;11.90;80.70
55121;DHT22;41019;48.512;9.036;2022-11-24T12:30:09;12.40;78.80
55121;DHT22;41019;48.512;9.036;2022-11-24T12:32:56;12.50;78.90
55121;DHT22;41019;48.512;9.036;2022-11-24T12:35:42;12.70;77.20
55121;DHT22;41019;48.512;9.036;2022-11-24T12:43:39;12.80;76.80
55121;DHT22;41019;48.512;9.036;2022-11-24T12:46:16;12.80;76.80
55121;DHT22;41019;48.512;9.036;2022-11-24T12:49:12;12.80;78.10
55121;DHT22;41019;48.512;9.036;2022-11-24T12:51:48;12.90;75.80
55121;DHT22;41019;48.512;9.036;2022-11-24T12:54:19;13.00;76.40
55121;DHT22;41019;48.512;9.036;2022-11-24T12:59:53;13.00;73.40
55121;DHT22;41019;48.512;9.036;2022-11-24T13:02:45;13.00;75.00
55121;DHT22;41019;48.512;9.036;2022-11-24T13:05:38;12.90;73.60
55121;DHT22;41019;48.512;9.036;2022-11-24T13:08:06;12.80;73.60
55121;DHT22;41019;48.512;9.036;2022-11-24T13:10:37;12.80;73.70
55121;DHT22;41019;48.512;9.036;2022-11-24T13:13:07;12.80;73.10
55121;DHT22;41019;48.512;9.036;2022-11-24T13:18:46;12.80;74.00
55121;DHT22;41019;48.512;9.036;2022-11-24T13:26:45;12.60;73.00
55121;DHT22;41019;48.512;9.036;2022-11-24T13:29:34;12.50;71.80
55121;DHT22;41019;48.512;9.036;2022-11-24T13:39:48;12.30;72.70
55121;DHT22;41019;48.512;9.036;2022-11-24T13:42:14;12.30;73.20
55121;DHT22;41019;48.512;9.036;2022-11-24T13:44:45;12.30;73.90
55121;DHT22;41019;48.512;9.036;2022-11-24T13:50:00;12.20;73.10
55121;DHT22;41019;48.512;9.036;2022-11-24T13:57:49;12.20;74.00
55121;DHT22;41019;48.512;9.036;2022-11-24T14:02:53;12.20;73.70
55121;DHT22;41019;48.512;9.036;2022-11-24T14:05:26;12.20;74.40
55121;DHT22;41019;48.512;9.036;2022-11-24T14:07:54;12.20;72.10
55121;DHT22;41019;48.512;9.036;2022-11-24T14:10:31;12.20;71.60
55121;DHT22;41019;48.512;9.036;2022-11-24T14:13:27;12.20;72.30
55121;DHT22;41019;48.512;9.036;2022-11-24T14:18:39;12.20;73.50
55121;DHT22;41019;48.512;9.036;2022-11-24T14:21:22;12.10;73.10
55121;DHT22;41019;48.512;9.036;2022-11-24T14:23:54;12.10;73.50
55121;DHT22;41019;48.512;9.036;2022-11-24T14:26:38;12.00;74.10
55121;DHT22;41019;48.512;9.036;2022-11-24T14:29:16;12.00;73.70
55121;DHT22;41019;48.512;9.036;2022-11-24T14:31:54;11.90;76.90
55121;DHT22;41019;48.512;9.036;2022-11-24T14:34:23;11.70;76.90
55121;DHT22;41019;48.512;9.036;2022-11-24T14:36:50;11.60;77.20
55121;DHT22;41019;48.512;9.036;2022-11-24T14:39:19;11.60;76.00
55121;DHT22;41019;48.512;9.036;2022-11-24T14:47:30;11.20;78.10
55121;DHT22;41019;48.512;9.036;2022-11-24T14:50:11;11.10;78.60
55121;DHT22;41019;48.512;9.036;2022-11-24T14:52:52;11.00;78.60
55121;DHT22;41019;48.512;9.036;2022-11-24T14:57:52;10.70;81.30
55121;DHT22;41019;48.512;9.036;2022-11-24T15:00:26;10.60;80.00
55121;DHT22;41019;48.512;9.036;2022-11-24T15:05:56;10.40;83.50
55121;DHT22;41019;48.512;9.036;2022-11-24T15:08:25;10.20;83.40
55121;DHT22;41019;48.512;9.036;2022-11-24T15:11:01;10.10;85.60
55121;DHT22;41019;48.512;9.036;2022-11-24T15:13:31;10.00;85.40
55121;DHT22;41019;48.512;9.036;2022-11-24T15:16:02;9.90;85.50
55121;DHT22;41019;48.512;9.036;2022-11-24T15:18:39;9.80;87.10
55121;DHT22;41019;48.512;9.036;2022-11-24T15:21:06;9.60;88.50
55121;DHT22;41019;48.512;9.036;2022-11-24T15:23:33;9.50;88.80
55121;DHT22;41019;48.512;9.036;2022-11-24T15:28:30;9.30;90.20
55121;DHT22;41019;48.512;9.036;2022-11-24T15:31:01;9.20;90.50
55121;DHT22;41019;48.512;9.036;2022-11-24T15:33:29;9.00;90.80
55121;DHT22;41019;48.512;9.036;2022-11-24T15:35:55;8.90;91.00
55121;DHT22;41019;48.512;9.036;2022-11-24T15:38:22;8.90;91.30
55121;DHT22;41019;48.512;9.036;2022-11-24T15:40:51;8.80;91.30
55121;DHT22;41019;48.512;9.036;2022-11-24T15:43:37;8.80;91.30
55121;DHT22;41019;48.512;9.036;2022-11-24T15:46:04;8.70;91.60
55121;DHT22;41019;48.512;9.036;2022-11-24T15:48:31;8.60;91.90
55121;DHT22;41019;48.512;9.036;2022-11-24T15:50:58;8.50;92.10
55121;DHT22;41019;48.512;9.036;2022-11-24T15:53:33;8.40;92.10
55121;DHT22;41019;48.512;9.036;2022-11-24T15:56:02;8.40;92.50
55121;DHT22;41019;48.512;9.036;2022-11-24T15:58:28;8.30;92.70
55121;DHT22;41019;48.512;9.036;2022-11-24T16:00:54;8.30;92.60
55121;DHT22;41019;48.512;9.036;2022-11-24T16:03:20;8.20;92.90
55121;DHT22;41019;48.512;9.036;2022-11-24T16:05:48;8.10;93.10
55121;DHT22;41019;48.512;9.036;2022-11-24T16:08:16;8.00;93.60
55121;DHT22;41019;48.512;9.036;2022-11-24T16:10:43;7.90;93.70
55121;DHT22;41019;48.512;9.036;2022-11-24T16:13:10;7.80;93.80
55121;DHT22;41019;48.512;9.036;2022-11-24T16:15:36;7.70;94.20
55121;DHT22;41019;48.512;9.036;2022-11-24T16:18:03;7.70;94.20
55121;DHT22;41019;48.512;9.036;2022-11-24T16:20:31;7.60;94.60
55121;DHT22;41019;48.512;9.036;2022-11-24T16:22:57;7.50;94.80
55121;DHT22;41019;48.512;9.036;2022-11-24T16:25:22;7.40;95.20
55121;DHT22;41019;48.512;9.036;2022-11-24T16:27:48;7.30;95.40
55121;DHT22;41019;48.512;9.036;2022-11-24T16:30:14;7.40;95.80
55121;DHT22;41019;48.512;9.036;2022-11-24T16:32:40;7.40;95.40
55121;DHT22;41019;48.512;9.036;2022-11-24T16:35:06;7.30;95.30
55121;DHT22;41019;48.512;9.036;2022-11-24T16:37:33;7.20;95.00
55121;DHT22;41019;48.512;9.036;2022-11-24T16:39:58;7.20;95.20
55121;DHT22;41019;48.512;9.036;2022-11-24T16:42:27;7.10;95.10
55121;DHT22;41019;48.512;9.036;2022-11-24T16:44:53;7.00;95.30
55121;DHT22;41019;48.512;9.036;2022-11-24T16:47:19;6.90;95.20
55121;DHT22;41019;48.512;9.036;2022-11-24T16:49:45;6.90;95.70
55121;DHT22;41019;48.512;9.036;2022-11-24T16:52:13;6.90;95.90
55121;DHT22;41019;48.512;9.036;2022-11-24T16:54:40;6.80;96.20
55121;DHT22;41019;48.512;9.036;2022-11-24T16:57:06;6.80;96.30
55121;DHT22;41019;48.512;9.036;2022-11-24T16:59:33;6.70;96.10
55121;DHT22;41019;48.512;9.036;2022-11-24T17:01:59;6.70;96.40
55121;DHT22;41019;48.512;9.036;2022-11-24T17:04:25;6.70;96.30
55121;DHT22;41019;48.512;9.036;2022-11-24T17:06:51;6.70;96.60
55121;DHT22;41019;48.512;9.036;2022-11-24T17:09:17;6.60;96.20
55121;DHT22;41019;48.512;9.036;2022-11-24T17:11:43;6.60;96.10
55121;DHT22;41019;48.512;9.036;2022-11-24T17:14:10;6.60;96.30
55121;DHT22;41019;48.512;9.036;2022-11-24T17:16:37;6.50;96.00
55121;DHT22;41019;48.512;9.036;2022-11-24T17:19:03;6.40;95.90
55121;DHT22;41019;48.512;9.036;2022-11-24T17:21:31;6.40;96.50
55121;DHT22;41019;48.512;9.036;2022-11-24T17:24:02;6.40;96.90
55121;DHT22;41019;48.512;9.036;2022-11-24T17:26:30;6.30;96.60
55121;DHT22;41019;48.512;9.036;2022-11-24T17:28:56;6.20;96.50
55121;DHT22;41019;48.512;9.036;2022-11-24T17:31:24;6.20;96.40
55121;DHT22;41019;48.512;9.036;2022-11-24T17:33:53;6.10;96.90
55121;DHT22;41019;48.512;9.036;2022-11-24T17:36:19;6.10;96.90
55121;DHT22;41019;48.512;9.036;2022-11-24T17:38:45;6.10;96.80
55121;DHT22;41019;48.512;9.036;2022-11-24T17:41:15;6.00;96.80
55121;DHT22;41019;48.512;9.036;2022-11-24T17:43:41;6.00;96.70
55121;DHT22;41019;48.512;9.036;2022-11-24T17:46:08;5.90;96.80
55121;DHT22;41019;48.512;9.036;2022-11-24T17:48:35;5.90;96.80
55121;DHT22;41019;48.512;9.036;2022-11-24T17:51:03;5.80;97.00
55121;DHT22;41019;48.512;9.036;2022-11-24T17:53:30;5.80;97.40
55121;DHT22;41019;48.512;9.036;2022-11-24T17:56:00;5.80;97.70
55121;DHT22;41019;48.512;9.036;2022-11-24T17:58:31;5.80;97.70
55121;DHT22;41019;48.512;9.036;2022-11-24T18:00:57;5.70;97.60
55121;DHT22;41019;48.512;9.036;2022-11-24T18:03:24;5.70;97.60
55121;DHT22;41019;48.512;9.036;2022-11-24T18:06:06;5.60;97.40
55121;DHT22;41019;48.512;9.036;2022-11-24T18:08:36;5.60;97.70